createdAt,value
2023-01-18T00:00:50.957Z,67.60
2023-01-18T00:03:03.719Z,54.50
2023-01-18T00:05:15.362Z,49.90
2023-01-18T00:07:27.605Z,50.70
2023-01-18T00:09:39.296Z,47.10
2023-01-18T00:11:51.594Z,48.40
2023-01-18T00:14:03.903Z,46.30
2023-01-18T00:16:21.411Z,46.30
2023-01-18T00:18:36.176Z,60.10
2023-01-18T00:20:47.874Z,67.90
2023-01-18T00:23:01.908Z,64.10
2023-01-18T00:25:13.597Z,67.70
2023-01-18T00:27:25.386Z,46.90
2023-01-18T00:29:37.791Z,44.20
2023-01-18T00:31:49.525Z,41.50
2023-01-18T00:34:01.805Z,38.40
2023-01-18T00:36:16.595Z,36.00
2023-01-18T00:38:29.359Z,36.90
2023-01-18T00:40:40.847Z,43.20
2023-01-18T00:43:11.866Z,38.80
2023-01-18T00:45:24.103Z,42.40
2023-01-18T00:47:36.277Z,38.70
2023-01-18T00:49:47.863Z,36.50
2023-01-18T00:51:59.549Z,37.30
2023-01-18T00:54:11.561Z,36.70
2023-01-18T00:56:23.850Z,37.60
2023-01-18T00:58:37.674Z,36.70
2023-01-18T01:00:52.982Z,39.20
2023-01-18T01:03:05.261Z,39.30
2023-01-18T01:05:45.104Z,40.10
2023-01-18T01:07:57.212Z,41.10
2023-01-18T01:10:10.326Z,45.10
2023-01-18T01:12:40.857Z,46.30
2023-01-18T01:15:11.727Z,50.50
2023-01-18T01:17:42.942Z,45.20
2023-01-18T01:20:13.366Z,45.20
2023-01-18T01:22:44.406Z,39.50
2023-01-18T01:25:15.241Z,49.50
2023-01-18T01:27:27.449Z,51.70
2023-01-18T01:29:39.233Z,51.40
2023-01-18T01:31:51.020Z,41.90
2023-01-18T01:34:02.609Z,45.60
2023-01-18T01:36:25.964Z,50.10
2023-01-18T01:38:37.858Z,52.30
2023-01-18T01:40:58.145Z,48.10
2023-01-18T01:43:13.542Z,44.40
2023-01-18T01:45:28.589Z,42.20
2023-01-18T01:47:44.577Z,43.40
2023-01-18T01:50:02.222Z,37.60
2023-01-18T01:52:19.933Z,40.40
2023-01-18T01:54:37.481Z,36.60
2023-01-18T01:56:53.852Z,31.20
2023-01-18T01:59:06.462Z,31.00
2023-01-18T02:01:18.430Z,33.10
2023-01-18T02:03:31.476Z,31.60
2023-01-18T02:05:46.877Z,33.50
2023-01-18T02:08:01.221Z,33.30
2023-01-18T02:10:12.887Z,35.00
2023-01-18T02:12:25.939Z,39.60
2023-01-18T02:14:38.314Z,39.30
2023-01-18T02:17:15.403Z,37.80
2023-01-18T02:20:07.031Z,36.00
2023-01-18T02:22:28.125Z,34.40
2023-01-18T02:24:52.306Z,33.20
2023-01-18T02:27:15.155Z,34.50
2023-01-18T02:29:48.552Z,33.20
2023-01-18T02:32:06.635Z,35.60
2023-01-18T02:34:49.103Z,34.20
2023-01-18T02:37:21.065Z,31.10
2023-01-18T02:39:50.699Z,31.50
2023-01-18T02:42:44.034Z,31.70
2023-01-18T02:45:15.796Z,30.50
2023-01-18T02:47:29.119Z,33.60
2023-01-18T02:49:40.805Z,34.10
2023-01-18T02:52:05.404Z,32.10
2023-01-18T02:54:24.670Z,30.60
2023-01-18T02:56:46.177Z,32.20
2023-01-18T02:59:16.301Z,32.00
2023-01-18T03:01:34.821Z,32.10
2023-01-18T03:06:02.731Z,29.60
2023-01-18T03:08:21.827Z,31.00
2023-01-18T03:10:44.126Z,31.30
2023-01-18T03:13:00.793Z,31.10
2023-01-18T03:15:45.110Z,25.80
2023-01-18T03:18:02.283Z,26.50
2023-01-18T03:20:18.961Z,31.20
2023-01-18T03:22:55.849Z,33.00
2023-01-18T03:25:10.245Z,28.20
2023-01-18T03:27:40.965Z,34.10
2023-01-18T03:30:11.628Z,27.70
2023-01-18T03:32:42.635Z,30.60
2023-01-18T03:34:57.104Z,28.00
2023-01-18T03:37:14.920Z,27.30
2023-01-18T03:39:51.809Z,31.40
2023-01-18T03:42:09.332Z,58.10
2023-01-18T03:44:36.371Z,74.90
2023-01-18T03:46:48.569Z,42.00
2023-01-18T03:49:00.980Z,38.50
2023-01-18T03:51:23.621Z,31.70
2023-01-18T03:53:42.886Z,34.00
2023-01-18T03:56:03.689Z,32.90
2023-01-18T03:58:21.961Z,31.50
2023-01-18T04:00:34.027Z,34.50
2023-01-18T04:02:48.211Z,35.70
2023-01-18T04:05:04.567Z,43.80
2023-01-18T04:07:16.970Z,46.00
2023-01-18T04:09:28.480Z,42.90
2023-01-18T04:11:40.561Z,42.10
2023-01-18T04:13:54.393Z,41.70
2023-01-18T04:16:06.936Z,44.20
2023-01-18T04:18:18.789Z,52.00
2023-01-18T04:20:30.993Z,61.40
2023-01-18T04:22:43.094Z,53.20
2023-01-18T04:24:54.671Z,49.80
2023-01-18T04:27:06.769Z,47.60
2023-01-18T04:29:18.555Z,44.20
2023-01-18T04:31:59.137Z,47.30
2023-01-18T04:34:13.983Z,40.40
2023-01-18T04:36:28.649Z,40.80
2023-01-18T04:38:40.531Z,35.60
2023-01-18T04:40:52.424Z,35.10
2023-01-18T04:43:04.727Z,37.50
2023-01-18T04:45:18.366Z,35.80
2023-01-18T04:47:30.477Z,33.50
2023-01-18T04:49:42.143Z,35.10
2023-01-18T04:51:54.347Z,31.80
2023-01-18T04:54:06.336Z,31.30
2023-01-18T04:56:18.337Z,29.20
2023-01-18T04:58:30.430Z,34.70
2023-01-18T05:00:42.465Z,39.60
2023-01-18T05:02:54.222Z,37.00
2023-01-18T05:05:06.619Z,43.20
2023-01-18T05:07:18.307Z,43.00
2023-01-18T05:09:30.508Z,43.30
2023-01-18T05:11:43.385Z,47.00
2023-01-18T05:13:56.149Z,45.60
2023-01-18T05:16:14.534Z,43.80
2023-01-18T05:20:38.571Z,39.50
2023-01-18T05:22:50.357Z,38.20
2023-01-18T05:25:02.064Z,35.70
2023-01-18T05:27:15.251Z,34.40
2023-01-18T05:29:27.168Z,35.00
2023-01-18T05:31:39.389Z,48.60
2023-01-18T05:33:51.561Z,63.90
2023-01-18T05:36:04.272Z,42.20
2023-01-18T05:38:15.988Z,37.70
2023-01-18T05:40:28.269Z,39.90
2023-01-18T05:42:39.949Z,39.20
2023-01-18T05:44:51.746Z,40.00
2023-01-18T05:47:03.635Z,38.80
2023-01-18T05:49:15.624Z,37.60
2023-01-18T05:51:27.416Z,35.10
2023-01-18T05:53:40.025Z,35.70
2023-01-18T05:56:00.137Z,31.80
2023-01-18T05:58:12.066Z,30.50
2023-01-18T06:00:23.898Z,30.20
2023-01-18T06:02:35.741Z,27.40
2023-01-18T06:04:48.103Z,24.70
2023-01-18T06:06:59.979Z,28.40
2023-01-18T06:09:11.669Z,24.20
2023-01-18T06:11:23.591Z,27.00
2023-01-18T06:13:35.773Z,26.10
2023-01-18T06:15:49.676Z,27.80
2023-01-18T06:18:02.411Z,25.30
2023-01-18T06:20:14.922Z,26.90
2023-01-18T06:22:26.606Z,25.60
2023-01-18T06:24:39.585Z,24.70
2023-01-18T06:26:51.740Z,30.50
2023-01-18T06:29:03.718Z,31.40
2023-01-18T06:31:15.627Z,29.80
2023-01-18T06:33:27.507Z,29.40
2023-01-18T06:35:39.906Z,30.60
2023-01-18T06:37:52.620Z,51.00
2023-01-18T06:40:05.634Z,44.30
2023-01-18T06:42:17.735Z,45.20
2023-01-18T06:44:29.319Z,38.80
2023-01-18T06:46:43.874Z,31.60
2023-01-18T06:48:55.978Z,30.70
2023-01-18T06:51:08.171Z,29.20
2023-01-18T06:53:20.900Z,27.20
2023-01-18T06:55:34.766Z,28.20
2023-01-18T06:57:47.938Z,29.70
2023-01-18T07:00:02.091Z,27.20
2023-01-18T07:02:16.739Z,29.30
2023-01-18T07:04:28.737Z,28.10
2023-01-18T07:06:40.328Z,30.60
2023-01-18T07:08:52.219Z,33.10
2023-01-18T07:11:07.106Z,33.50
2023-01-18T07:13:20.509Z,33.10
2023-01-18T07:15:32.407Z,35.00
2023-01-18T07:17:45.314Z,41.50
2023-01-18T07:19:57.412Z,38.90
2023-01-18T07:22:09.460Z,39.40
2023-01-18T07:24:22.431Z,42.60
2023-01-18T07:26:34.113Z,53.90
2023-01-18T07:28:47.346Z,52.10
2023-01-18T07:31:02.709Z,54.40
2023-01-18T07:33:14.396Z,51.10
2023-01-18T07:35:27.727Z,55.80
2023-01-18T07:37:40.231Z,57.40
2023-01-18T07:39:52.543Z,72.90
2023-01-18T07:42:05.145Z,73.20
2023-01-18T07:44:18.925Z,74.90
2023-01-18T07:46:31.657Z,68.30
2023-01-18T07:48:45.233Z,70.50
2023-01-18T07:51:00.114Z,66.10
2023-01-18T07:53:12.021Z,62.20
2023-01-18T07:55:24.795Z,80.80
2023-01-18T07:57:36.301Z,83.90
2023-01-18T07:59:48.163Z,101.00
2023-01-18T08:01:59.973Z,91.40
2023-01-18T08:04:11.846Z,74.20
2023-01-18T08:06:26.094Z,71.70
2023-01-18T08:08:38.296Z,67.70
2023-01-18T08:10:55.000Z,95.00
2023-01-18T08:13:11.284Z,77.80
2023-01-18T08:15:23.188Z,56.30
2023-01-18T08:17:35.719Z,56.80
2023-01-18T08:19:47.248Z,53.70
2023-01-18T08:21:59.281Z,50.10
2023-01-18T08:24:11.472Z,56.10
2023-01-18T08:26:23.369Z,56.80
2023-01-18T08:28:35.566Z,57.70
2023-01-18T08:30:48.940Z,112.10
2023-01-18T08:33:02.745Z,101.90
2023-01-18T08:35:14.631Z,84.70
2023-01-18T08:37:26.632Z,73.30
2023-01-18T08:39:38.815Z,60.40
2023-01-18T08:41:50.501Z,64.20
2023-01-18T08:44:02.503Z,60.20
2023-01-18T08:46:15.764Z,57.50
2023-01-18T08:48:28.028Z,57.10
2023-01-18T08:50:39.911Z,61.10
2023-01-18T08:52:52.697Z,58.70
2023-01-18T08:55:05.418Z,65.30
2023-01-18T08:57:17.343Z,63.90
2023-01-18T08:59:29.051Z,72.50
2023-01-18T09:01:40.695Z,70.10
2023-01-18T09:03:57.694Z,67.20
2023-01-18T09:06:12.481Z,62.40
2023-01-18T09:08:24.883Z,56.50
2023-01-18T09:10:37.697Z,55.60
2023-01-18T09:12:51.104Z,62.80
2023-01-18T09:15:05.067Z,59.10
2023-01-18T09:17:19.315Z,58.90
2023-01-18T09:19:31.205Z,60.70
2023-01-18T09:21:45.248Z,64.20
2023-01-18T09:23:59.497Z,64.60
2023-01-18T09:26:17.089Z,65.70
2023-01-18T09:28:29.321Z,69.50
2023-01-18T09:30:41.111Z,70.90
2023-01-18T09:32:52.799Z,69.60
2023-01-18T09:35:06.285Z,71.00
2023-01-18T09:37:19.292Z,74.80
2023-01-18T09:39:40.207Z,61.60
2023-01-18T09:42:01.584Z,62.10
2023-01-18T09:44:29.636Z,65.40
2023-01-18T09:46:42.793Z,51.80
2023-01-18T09:48:57.463Z,52.30
2023-01-18T09:51:20.822Z,57.80
2023-01-18T09:53:55.096Z,54.80
2023-01-18T09:56:20.871Z,57.10
2023-01-18T09:58:57.893Z,53.70
2023-01-18T10:01:18.172Z,50.70
2023-01-18T10:03:59.161Z,47.40
2023-01-18T10:06:21.700Z,42.50
2023-01-18T10:08:36.253Z,48.20
2023-01-18T10:11:09.884Z,40.10
2023-01-18T10:13:34.382Z,43.90
2023-01-18T10:15:46.645Z,44.70
2023-01-18T10:18:00.771Z,58.30
2023-01-18T10:20:34.286Z,86.70
2023-01-18T10:22:52.889Z,51.00
2023-01-18T10:25:32.893Z,51.70
2023-01-18T10:28:08.242Z,58.10
2023-01-18T10:30:55.962Z,57.60
2023-01-18T10:33:18.710Z,43.20
2023-01-18T10:35:39.924Z,45.50
2023-01-18T10:37:55.298Z,41.30
2023-01-18T10:40:10.350Z,38.00
2023-01-18T10:42:48.061Z,39.50
2023-01-18T10:44:59.950Z,33.70
2023-01-18T10:47:12.155Z,38.10
2023-01-18T10:49:42.888Z,38.90
2023-01-18T10:51:54.983Z,40.70
2023-01-18T10:54:19.368Z,44.80
2023-01-18T10:56:31.282Z,49.30
2023-01-18T10:58:52.183Z,42.50
2023-01-18T11:01:04.741Z,38.80
2023-01-18T11:03:17.074Z,42.60
2023-01-18T11:05:31.936Z,41.10
2023-01-18T11:07:44.237Z,39.90
2023-01-18T11:10:01.711Z,38.90
2023-01-18T11:12:41.548Z,32.90
2023-01-18T11:14:53.501Z,39.00
2023-01-18T11:17:12.691Z,37.00
2023-01-18T11:19:26.548Z,34.60
2023-01-18T11:21:41.309Z,43.30
2023-01-18T11:23:55.345Z,42.80
2023-01-18T11:26:15.207Z,36.50
2023-01-18T11:28:39.657Z,35.70
2023-01-18T11:31:08.771Z,45.50
2023-01-18T11:33:23.795Z,48.90
2023-01-18T11:35:37.332Z,66.20
2023-01-18T11:37:48.999Z,65.70
2023-01-18T11:40:21.630Z,49.60
2023-01-18T11:42:37.865Z,50.30
2023-01-18T11:45:07.215Z,66.10
2023-01-18T11:47:32.027Z,85.60
2023-01-18T11:49:53.009Z,65.00
2023-01-18T11:52:36.260Z,96.00
2023-01-18T11:55:02.063Z,59.30
2023-01-18T11:57:14.432Z,51.70
2023-01-18T11:59:35.661Z,49.40
2023-01-18T12:02:05.854Z,48.20
2023-01-18T12:04:55.689Z,54.80
2023-01-18T12:07:33.080Z,57.90
2023-01-18T12:10:07.517Z,47.40
2023-01-18T12:12:53.613Z,51.80
2023-01-18T12:15:31.805Z,58.70
2023-01-18T12:18:22.298Z,94.50
2023-01-18T12:20:53.874Z,76.70
2023-01-18T12:23:27.270Z,72.10
2023-01-18T12:25:57.699Z,69.40
2023-01-18T12:28:20.971Z,67.90
2023-01-18T12:30:58.334Z,90.40
2023-01-18T12:33:20.590Z,102.70
2023-01-18T12:36:07.063Z,82.40
2023-01-18T12:38:23.357Z,69.80
2023-01-18T12:40:41.300Z,94.40
2023-01-18T12:43:02.198Z,115.40
2023-01-18T12:45:23.101Z,86.20
2023-01-18T12:47:49.432Z,70.60
2023-01-18T12:50:07.294Z,68.70
2023-01-18T12:52:22.538Z,83.70
2023-01-18T12:54:42.318Z,61.30
2023-01-18T12:56:57.245Z,77.50
2023-01-18T12:59:19.574Z,69.70
2023-01-18T13:01:39.266Z,69.40
2023-01-18T13:03:57.836Z,61.00
2023-01-18T13:06:10.550Z,61.30
2023-01-18T13:08:31.660Z,61.40
2023-01-18T13:10:44.879Z,75.20
2023-01-18T13:12:58.120Z,63.00
2023-01-18T13:15:35.598Z,52.70
2023-01-18T13:17:56.866Z,51.40
2023-01-18T13:20:09.730Z,54.90
2023-01-18T13:22:31.857Z,56.50
2023-01-18T13:25:11.932Z,69.40
2023-01-18T13:27:24.419Z,55.70
2023-01-18T13:29:37.127Z,56.70
2023-01-18T13:31:49.433Z,52.70
2023-01-18T13:34:01.835Z,51.40
2023-01-18T13:36:17.553Z,51.40
2023-01-18T13:38:41.096Z,57.00
2023-01-18T13:40:55.813Z,54.40
2023-01-18T13:43:29.955Z,57.30
2023-01-18T13:46:02.442Z,50.90
2023-01-18T13:49:03.061Z,54.70
2023-01-18T13:51:36.715Z,61.60
2023-01-18T13:53:50.301Z,57.20
2023-01-18T13:56:08.811Z,51.00
2023-01-18T13:58:29.873Z,59.30
2023-01-18T14:00:48.402Z,66.40
2023-01-18T14:03:16.895Z,61.00
2023-01-18T14:05:46.416Z,56.30
2023-01-18T14:08:01.893Z,58.00
2023-01-18T14:10:49.205Z,51.20
2023-01-18T14:13:03.643Z,50.20
2023-01-18T14:15:46.924Z,49.80
2023-01-18T14:17:59.472Z,62.30
2023-01-18T14:20:29.490Z,48.30
2023-01-18T14:23:17.682Z,48.50
2023-01-18T14:25:58.109Z,71.20
2023-01-18T14:29:07.133Z,61.70
2023-01-18T14:31:26.850Z,53.90
2023-01-18T14:33:42.612Z,64.30
2023-01-18T14:36:01.171Z,60.70
2023-01-18T14:38:18.872Z,76.70
2023-01-18T14:40:31.713Z,74.00
2023-01-18T14:43:01.122Z,70.80
2023-01-18T14:45:40.968Z,63.90
2023-01-18T14:47:55.191Z,61.40
2023-01-18T14:50:16.385Z,83.10
2023-01-18T14:52:32.386Z,123.80
2023-01-18T14:54:56.026Z,122.70
2023-01-18T14:57:14.545Z,115.80
2023-01-18T14:59:27.893Z,89.70
2023-01-18T15:01:40.637Z,65.20
2023-01-18T15:03:55.285Z,60.10
2023-01-18T15:06:16.063Z,55.50
2023-01-18T15:08:30.713Z,61.50
2023-01-18T15:10:44.278Z,54.50
2023-01-18T15:12:59.044Z,52.90
2023-01-18T15:15:22.404Z,54.10
2023-01-18T15:17:37.288Z,49.80
2023-01-18T15:19:57.267Z,62.90
2023-01-18T15:22:12.642Z,84.50
2023-01-18T15:24:29.448Z,77.00
2023-01-18T15:26:53.146Z,63.60
2023-01-18T15:29:09.384Z,58.80
2023-01-18T15:31:21.207Z,52.10
2023-01-18T15:33:35.343Z,51.10
2023-01-18T15:35:50.386Z,56.50
2023-01-18T15:38:05.174Z,58.40
2023-01-18T15:40:17.239Z,56.70
2023-01-18T15:42:36.975Z,58.50
2023-01-18T15:44:52.185Z,59.00
2023-01-18T15:47:15.760Z,74.50
2023-01-18T15:49:27.957Z,90.30
2023-01-18T15:51:56.641Z,98.00
2023-01-18T15:54:15.290Z,73.50
2023-01-18T15:56:32.862Z,109.20
2023-01-18T15:58:50.088Z,131.30
2023-01-18T16:01:13.923Z,104.70
2023-01-18T16:03:29.969Z,128.80
2023-01-18T16:05:41.888Z,116.90
2023-01-18T16:08:21.670Z,93.80
2023-01-18T16:10:34.038Z,110.60
2023-01-18T16:12:46.140Z,151.50
2023-01-18T16:14:58.027Z,116.10
2023-01-18T16:17:24.520Z,96.20
2023-01-18T16:19:41.986Z,75.90
2023-01-18T16:22:06.176Z,98.00
2023-01-18T16:24:30.856Z,73.70
2023-01-18T16:26:44.178Z,92.20
2023-01-18T16:29:06.834Z,84.70
2023-01-18T16:31:23.012Z,98.70
2023-01-18T16:33:35.325Z,104.30
2023-01-18T16:35:48.648Z,100.50
2023-01-18T16:38:04.095Z,94.50
2023-01-18T16:40:19.044Z,91.30
2023-01-18T16:42:38.588Z,86.20
2023-01-18T16:44:52.747Z,78.60
2023-01-18T16:47:05.311Z,70.60
2023-01-18T16:49:18.400Z,86.60
2023-01-18T16:51:32.000Z,83.40
2023-01-18T16:53:45.201Z,92.10
2023-01-18T16:55:58.149Z,90.30
2023-01-18T16:58:13.737Z,144.60
2023-01-18T17:00:34.091Z,112.20
2023-01-18T17:02:47.192Z,79.60
2023-01-18T17:04:59.823Z,62.60
2023-01-18T17:07:13.422Z,63.80
2023-01-18T17:09:32.370Z,65.90
2023-01-18T17:11:45.907Z,63.70
2023-01-18T17:14:01.324Z,64.00
2023-01-18T17:16:20.110Z,65.90
2023-01-18T17:18:32.053Z,67.40
2023-01-18T17:20:44.878Z,79.60
2023-01-18T17:22:58.307Z,97.10
2023-01-18T17:25:12.543Z,86.80
2023-01-18T17:27:25.490Z,85.50
2023-01-18T17:29:38.516Z,83.10
2023-01-18T17:31:53.222Z,86.60
2023-01-18T17:34:07.500Z,89.20
2023-01-18T17:36:20.975Z,86.90
2023-01-18T17:38:36.535Z,94.80
2023-01-18T17:40:49.306Z,107.90
2023-01-18T17:43:01.647Z,114.90
2023-01-18T17:45:16.671Z,129.20
2023-01-18T17:47:30.152Z,186.60
2023-01-18T17:49:42.034Z,202.70
2023-01-18T17:51:53.988Z,189.00
2023-01-18T17:54:13.152Z,166.00
2023-01-18T17:56:33.235Z,125.40
2023-01-18T17:58:47.839Z,118.90
2023-01-18T18:01:11.579Z,122.60
2023-01-18T18:03:23.764Z,186.60
2023-01-18T18:05:35.647Z,201.90
2023-01-18T18:07:49.795Z,197.30
2023-01-18T18:10:02.360Z,135.30
2023-01-18T18:12:14.190Z,149.40
2023-01-18T18:14:26.097Z,97.00
2023-01-18T18:16:49.389Z,108.80
2023-01-18T18:19:03.111Z,137.40
2023-01-18T18:21:47.829Z,128.90
2023-01-18T18:24:04.034Z,102.00
2023-01-18T18:26:16.854Z,86.60
2023-01-18T18:28:29.969Z,89.20
2023-01-18T18:30:41.658Z,82.50
2023-01-18T18:32:55.501Z,87.50
2023-01-18T18:35:23.219Z,93.10
2023-01-18T18:37:36.895Z,101.10
2023-01-18T18:39:49.499Z,120.70
2023-01-18T18:42:01.759Z,133.50
2023-01-18T18:44:14.622Z,135.10
2023-01-18T18:46:26.857Z,135.30
2023-01-18T18:48:39.120Z,127.40
2023-01-18T18:50:52.317Z,130.10
2023-01-18T18:53:03.968Z,125.70
2023-01-18T18:55:16.331Z,120.80
2023-01-18T18:57:29.561Z,117.70
2023-01-18T18:59:41.679Z,115.80
2023-01-18T19:01:55.800Z,120.00
2023-01-18T19:04:08.201Z,139.60
2023-01-18T19:06:23.343Z,132.30
2023-01-18T19:08:35.264Z,127.20
2023-01-18T19:10:51.316Z,127.10
2023-01-18T19:13:05.001Z,133.40
2023-01-18T19:15:17.306Z,111.40
2023-01-18T19:17:31.038Z,111.90
2023-01-18T19:19:47.319Z,119.60
2023-01-18T19:21:59.520Z,110.30
2023-01-18T19:24:11.310Z,106.20
2023-01-18T19:26:22.999Z,102.20
2023-01-18T19:28:36.431Z,103.90
2023-01-18T19:30:50.987Z,100.80
2023-01-18T19:33:03.649Z,103.10
2023-01-18T19:35:23.471Z,107.90
2023-01-18T19:37:38.843Z,112.80
2023-01-18T19:39:50.636Z,110.60
2023-01-18T19:42:02.942Z,140.30
2023-01-18T19:44:14.622Z,122.30
2023-01-18T19:46:26.603Z,128.40
2023-01-18T19:48:40.618Z,119.80
2023-01-18T19:50:54.089Z,122.60
2023-01-18T19:53:06.801Z,141.30
2023-01-18T19:56:06.450Z,195.70
2023-01-18T19:58:47.908Z,182.30
2023-01-18T20:01:00.296Z,225.10
2023-01-18T20:03:13.696Z,295.60
2023-01-18T20:05:28.506Z,333.80
2023-01-18T20:07:41.392Z,257.70
2023-01-18T20:09:53.236Z,182.60
2023-01-18T20:12:05.604Z,159.40
2023-01-18T20:14:18.565Z,163.50
2023-01-18T20:16:31.124Z,158.10
2023-01-18T20:18:43.236Z,145.40
2023-01-18T20:20:56.962Z,120.40
2023-01-18T20:23:11.717Z,113.00
2023-01-18T20:25:25.760Z,119.50
2023-01-18T20:27:37.958Z,108.40
2023-01-18T20:29:51.191Z,112.40
2023-01-18T20:32:15.152Z,107.70
2023-01-18T20:34:27.971Z,106.70
2023-01-18T20:36:40.888Z,115.20
2023-01-18T20:38:52.677Z,107.30
2023-01-18T20:41:06.265Z,106.20
2023-01-18T20:43:18.651Z,101.80
2023-01-18T20:45:31.399Z,95.70
2023-01-18T20:47:44.956Z,85.80
2023-01-18T20:49:56.849Z,82.10
2023-01-18T20:52:11.404Z,85.70
2023-01-18T20:54:22.934Z,83.60
2023-01-18T20:56:34.676Z,81.10
2023-01-18T20:58:47.217Z,79.90
2023-01-18T21:01:07.644Z,75.70
2023-01-18T21:03:19.776Z,78.00
2023-01-18T21:05:31.360Z,73.20
2023-01-18T21:07:43.357Z,73.10
2023-01-18T21:09:56.274Z,72.70
2023-01-18T21:12:08.264Z,69.90
2023-01-18T21:14:23.418Z,71.30
2023-01-18T21:16:48.281Z,68.00
2023-01-18T21:19:00.838Z,68.40
2023-01-18T21:21:13.291Z,64.70
2023-01-18T21:23:26.359Z,66.90
2023-01-18T21:25:38.361Z,72.10
2023-01-18T21:27:53.620Z,74.30
2023-01-18T21:30:06.965Z,73.50
2023-01-18T21:32:53.760Z,74.60
2023-01-18T21:35:06.171Z,75.10
2023-01-18T21:37:17.960Z,81.80
2023-01-18T21:39:40.459Z,85.10
2023-01-18T21:43:01.936Z,75.60
2023-01-18T21:45:35.294Z,84.50
2023-01-18T21:48:15.099Z,85.20
2023-01-18T21:50:47.400Z,90.80
2023-01-18T21:53:19.688Z,90.10
2023-01-18T21:55:31.833Z,85.40
2023-01-18T21:57:44.006Z,90.10
2023-01-18T21:59:55.593Z,92.30
2023-01-18T22:02:09.966Z,91.50
2023-01-18T22:04:40.618Z,96.00
2023-01-18T22:06:54.374Z,94.30
2023-01-18T22:09:20.669Z,94.70
2023-01-18T22:11:33.253Z,95.50
2023-01-18T22:13:45.446Z,97.10
2023-01-18T22:16:02.706Z,91.40
2023-01-18T22:18:14.456Z,98.40
2023-01-18T22:20:26.552Z,96.60
2023-01-18T22:22:38.418Z,103.00
2023-01-18T22:24:50.136Z,103.40
2023-01-18T22:27:01.718Z,106.80
2023-01-18T22:29:13.852Z,107.60
2023-01-18T22:31:26.122Z,109.30
2023-01-18T22:33:37.904Z,108.90
2023-01-18T22:35:49.538Z,103.30
2023-01-18T22:38:01.806Z,98.70
2023-01-18T22:40:14.207Z,98.80
2023-01-18T22:42:26.192Z,99.30
2023-01-18T22:44:37.986Z,101.30
2023-01-18T22:46:50.078Z,102.30
2023-01-18T22:49:01.668Z,100.90
2023-01-18T22:51:16.718Z,95.50
2023-01-18T22:53:31.697Z,95.10
2023-01-18T22:55:43.384Z,89.30
2023-01-18T22:57:55.276Z,82.80
2023-01-18T23:00:07.990Z,82.30
2023-01-18T23:02:19.981Z,85.10
2023-01-18T23:04:34.133Z,88.50
2023-01-18T23:06:48.005Z,94.40
2023-01-18T23:09:00.368Z,92.40
2023-01-18T23:11:21.989Z,99.10
2023-01-18T23:13:33.780Z,107.40
2023-01-18T23:16:04.621Z,100.30
2023-01-18T23:18:16.711Z,89.00
2023-01-18T23:20:28.919Z,72.40
2023-01-18T23:22:41.316Z,74.50
2023-01-18T23:24:53.104Z,72.00
2023-01-18T23:27:07.150Z,74.00
2023-01-18T23:29:19.087Z,73.80
2023-01-18T23:31:30.875Z,70.80
2023-01-18T23:33:45.691Z,74.80
2023-01-18T23:35:57.792Z,75.60
2023-01-18T23:38:09.479Z,72.20
2023-01-18T23:40:40.010Z,68.90
2023-01-18T23:43:13.710Z,75.60
2023-01-18T23:45:44.550Z,76.80
2023-01-18T23:48:15.282Z,70.20
2023-01-18T23:50:46.033Z,79.10
2023-01-18T23:53:20.706Z,75.30
2023-01-18T23:55:32.744Z,70.60
2023-01-18T23:57:44.834Z,69.70
2023-01-18T23:59:58.945Z,65.20
